Time;durP1;ratioP1;P1;durP2;ratioP2;P2;SDS_P1;SDS_P2;PMS_P1;PMS_P2;Temp;Humidity;BMP_temperature;BMP_pressure;BME280_temperature;BME280_humidity;BME280_pressure;Samples;Min_cycle;Max_cycle;Signal;HPM_P1;HPM_P2
2022/05/04 00:00:38;;;;;;;9.63;6.32;;;;;;;5.75;66.75;95519.69;5047538;28;20020;-72
2022/05/04 00:03:04;;;;;;;11.15;6.05;;;;;;;5.71;66.60;95524.47;5047012;28;20039;-74
2022/05/04 00:05:31;;;;;;;10.38;5.72;;;;;;;5.65;66.32;95520.56;5047726;28;20025;-76
2022/05/04 00:07:56;;;;;;;8.38;5.53;;;;;;;5.63;67.72;95519.03;5065249;28;20416;-74
2022/05/04 00:10:22;;;;;;;10.15;5.78;;;;;;;5.59;67.37;95515.84;5030522;28;20503;-73
2022/05/04 00:12:48;;;;;;;9.40;5.93;;;;;;;5.55;67.53;95515.28;5065213;28;20024;-73
2022/05/04 00:15:13;;;;;;;10.93;6.20;;;;;;;5.52;67.80;95520.88;5030360;28;20029;-74
2022/05/04 00:17:38;;;;;;;8.82;5.10;;;;;;;5.52;67.39;95525.34;5047084;28;20059;-74
2022/05/04 00:20:04;;;;;;;8.60;5.03;;;;;;;5.43;67.21;95516.44;5046535;28;20047;-75
2022/05/04 00:22:30;;;;;;;7.63;5.35;;;;;;;5.47;67.68;95531.09;5047649;28;20100;-74
2022/05/04 00:24:55;;;;;;;8.05;5.47;;;;;;;5.43;67.89;95532.38;5014039;28;20115;-75
2022/05/04 00:27:21;;;;;;;8.32;5.40;;;;;;;5.43;68.52;95527.06;5046918;28;20059;-74
2022/05/04 00:29:46;;;;;;;8.63;5.68;;;;;;;5.43;68.66;95537.72;5047040;28;20031;-75
2022/05/04 00:32:12;;;;;;;11.07;5.60;;;;;;;5.41;69.08;95531.69;5046700;28;20028;-74
2022/05/04 00:34:38;;;;;;;9.07;5.57;;;;;;;5.45;68.77;95530.41;5046662;28;20071;-72
2022/05/04 00:37:04;;;;;;;7.70;5.15;;;;;;;5.50;68.27;95528.16;5046840;28;20478;-74
2022/05/04 00:39:29;;;;;;;9.77;5.47;;;;;;;5.52;67.48;95530.69;5046949;28;20040;-74
2022/05/04 00:42:12;;;;;;;7.15;5.20;;;;;;;5.51;67.30;95537.84;5064665;28;20476;-75
2022/05/04 00:44:38;;;;;;;8.20;5.22;;;;;;;5.42;67.23;95551.97;5047072;28;20488;-76
2022/05/04 00:47:04;;;;;;;7.30;4.88;;;;;;;5.46;67.26;95544.56;5030285;28;20028;-76
2022/05/04 00:49:30;;;;;;;10.98;4.75;;;;;;;5.44;67.17;95552.69;5046532;28;20050;-75
2022/05/04 00:51:55;;;;;;;7.85;5.10;;;;;;;5.50;66.70;95549.44;5046817;28;20479;-75
2022/05/04 00:54:20;;;;;;;7.05;4.80;;;;;;;5.53;66.75;95548.34;5046306;28;20032;-73
2022/05/04 00:56:46;;;;;;;5.57;4.10;;;;;;;5.49;66.35;95542.44;5064826;28;20031;-76
2022/05/04 00:59:11;;;;;;;7.38;4.30;;;;;;;5.46;66.79;95542.75;5029968;28;20376;-76
2022/05/04 01:01:37;;;;;;;8.90;4.88;;;;;;;5.32;66.63;95550.16;5029957;28;20577;-74
2022/05/04 01:04:02;;;;;;;6.63;4.97;;;;;;;5.34;67.46;95550.03;5046561;28;20024;-75
2022/05/04 01:06:28;;;;;;;7.28;4.43;;;;;;;5.35;67.36;95546.41;5046912;28;20031;-74
2022/05/04 01:08:53;;;;;;;7.35;4.68;;;;;;;5.34;68.02;95559.84;5034160;28;20093;-73
2022/05/04 01:11:19;;;;;;;8.32;4.68;;;;;;;5.37;67.80;95554.25;5033723;28;20549;-74
2022/05/04 01:14:01;;;;;;;10.32;5.47;;;;;;;5.41;67.49;95553.81;5050445;28;20033;-74
2022/05/04 01:16:27;;;;;;;8.45;5.00;;;;;;;5.43;67.65;95551.00;5034111;28;20028;-76
2022/05/04 01:18:52;;;;;;;6.72;4.43;;;;;;;5.47;67.35;95544.41;5050841;28;20036;-74
2022/05/04 01:21:18;;;;;;;7.53;5.22;;;;;;;5.41;68.06;95551.16;5068711;28;20021;-73
2022/05/04 01:23:43;;;;;;;7.10;5.15;;;;;;;5.38;68.24;95556.75;5050370;28;20024;-75
2022/05/04 01:26:08;;;;;;;8.95;5.70;;;;;;;5.40;67.90;95553.94;5033735;28;20028;-73
2022/05/04 01:28:34;;;;;;;9.35;5.22;;;;;;;5.43;67.18;95553.66;5049939;28;20506;-72
2022/05/04 01:30:59;;;;;;;8.43;6.28;;;;;;;5.44;68.09;95550.00;5050174;28;20020;-74
2022/05/04 01:33:25;;;;;;;9.75;5.90;;;;;;;5.46;67.64;95556.03;5049722;28;20462;-75
2022/05/04 01:35:50;;;;;;;11.10;5.70;;;;;;;5.50;67.93;95541.47;5050281;28;20518;-76
2022/05/04 01:38:16;;;;;;;10.45;7.40;;;;;;;5.48;68.46;95538.09;5068094;28;20021;-75
2022/05/04 01:40:41;;;;;;;12.15;8.27;;;;;;;5.55;67.75;95547.19;5033648;28;20024;-73
2022/05/04 01:43:07;;;;;;;10.90;7.07;;;;;;;5.53;67.57;95549.16;5050088;28;20051;-75
2022/05/04 01:45:32;;;;;;;12.82;7.35;;;;;;;5.53;67.90;95543.03;5067919;28;20158;-75
2022/05/04 01:47:57;;;;;;;12.80;6.55;;;;;;;5.48;68.39;95537.28;5050008;28;20025;-73
2022/05/04 01:50:24;;;;;;;11.70;5.95;;;;;;;5.53;67.78;95537.69;5067895;28;20052;-75
2022/05/04 01:52:49;;;;;;;10.30;6.38;;;;;;;5.53;68.33;95535.03;5067282;28;20048;-74
2022/05/04 01:55:15;;;;;;;12.55;7.47;;;;;;;5.52;68.19;95541.31;5067817;28;20028;-74
2022/05/04 01:57:40;;;;;;;10.48;6.93;;;;;;;5.39;69.04;95536.28;5050169;28;20105;-74
2022/05/04 02:00:06;;;;;;;12.48;6.85;;;;;;;5.36;69.89;95547.22;5067705;28;20040;-74
2022/05/04 02:02:32;;;;;;;10.38;6.43;;;;;;;5.32;68.94;95547.50;5067806;28;20024;-74
2022/05/04 02:04:57;;;;;;;9.85;6.60;;;;;;;5.26;68.77;95540.09;5049729;28;20560;-75
2022/05/04 02:07:23;;;;;;;9.50;5.97;;;;;;;5.25;68.98;95529.59;5067577;28;20047;-74
2022/05/04 02:09:48;;;;;;;12.88;6.05;;;;;;;5.22;69.67;95536.06;5049290;28;20420;-73
2022/05/04 02:12:14;;;;;;;13.02;6.65;;;;;;;5.13;69.13;95537.72;5049545;28;20036;-74
2022/05/04 02:14:39;;;;;;;9.15;6.10;;;;;;;5.16;69.83;95542.75;5067496;28;20016;-74
2022/05/04 02:17:05;;;;;;;10.45;6.32;;;;;;;5.14;69.32;95541.22;5067118;28;20032;-74
2022/05/04 02:19:30;;;;;;;11.50;6.25;;;;;;;5.16;69.97;95548.06;5032828;28;20036;-75
2022/05/04 02:21:55;;;;;;;12.05;6.53;;;;;;;5.12;69.24;95545.84;5067159;28;20032;-76
2022/05/04 02:24:21;;;;;;;13.55;6.57;;;;;;;5.10;70.12;95545.97;5049443;28;20028;-73
2022/05/04 02:26:46;;;;;;;8.73;5.45;;;;;;;5.07;69.69;95549.78;5049068;28;20025;-74
2022/05/04 02:29:12;;;;;;;9.07;5.43;;;;;;;5.07;69.29;95548.91;5066982;28;20028;-75
2022/05/04 02:31:37;;;;;;;10.55;5.95;;;;;;;5.08;69.89;95550.59;5049249;28;20033;-74
2022/05/04 02:34:03;;;;;;;8.70;5.50;;;;;;;5.12;69.42;95541.38;5066820;28;20025;-75
2022/05/04 02:39:12;;;;;;;9.43;6.25;;;;;;;5.13;69.33;95542.19;5038151;28;20032;-75
2022/05/04 02:41:37;;;;;;;8.57;5.50;;;;;;;5.13;68.28;95547.50;5049224;28;20017;-77
2022/05/04 02:44:03;;;;;;;11.57;5.28;;;;;;;5.06;69.01;95547.25;5048724;28;20036;-76
2022/05/04 02:46:29;;;;;;;8.77;6.00;;;;;;;5.06;68.67;95547.25;5049150;28;20020;-76
2022/05/04 02:48:55;;;;;;;11.93;5.95;;;;;;;5.06;68.29;95552.56;5031893;28;20037;-77
2022/05/04 02:51:20;;;;;;;11.68;5.68;;;;;;;5.02;68.47;95552.00;5048833;28;20402;-74
2022/05/04 02:53:46;;;;;;;8.10;6.05;;;;;;;5.02;67.64;95554.66;5048592;28;20063;-75
2022/05/04 02:56:15;;;;;;;8.82;4.97;;;;;;;5.01;67.91;95555.66;5066681;28;20115;-75
2022/05/04 02:58:41;;;;;;;7.78;5.03;;;;;;;5.03;67.05;95566.97;5049871;28;20082;-76
2022/05/04 03:02:26;;;;;;;7.63;5.03;;;;;;;4.94;67.92;95570.47;5048718;28;20025;-75
2022/05/04 03:03:57;;;;;;;8.38;5.32;;;;;;;4.94;68.58;95570.47;5066213;28;20166;-78
2022/05/04 03:06:22;;;;;;;9.05;5.30;;;;;;;4.99;68.37;95578.00;5066719;28;20020;-75
2022/05/04 03:08:48;;;;;;;8.45;5.10;;;;;;;4.98;67.64;95581.66;5066327;28;20527;-78
2022/05/04 03:13:58;;;;;;;8.27;4.97;;;;;;;4.89;67.13;95580.66;5066322;28;20500;-76
2022/05/04 03:16:24;;;;;;;8.57;5.20;;;;;;;4.78;67.42;95578.97;5066575;28;20132;-76
2022/05/04 03:18:49;;;;;;;8.27;4.75;;;;;;;4.72;67.97;95585.69;5066463;28;20441;-75
2022/05/04 03:21:14;;;;;;;7.93;5.28;;;;;;;4.73;67.70;95582.03;5066058;28;20024;-74
2022/05/04 03:23:40;;;;;;;11.30;5.75;;;;;;;4.55;69.10;95581.84;5066278;28;20079;-74
2022/05/04 03:26:09;;;;;;;9.88;6.35;;;;;;;4.55;69.32;95587.16;5065973;28;20020;-76
2022/05/04 03:28:34;;;;;;;7.78;5.50;;;;;;;4.56;69.78;95588.88;5048338;28;20032;-75
2022/05/04 03:30:59;;;;;;;10.02;5.32;;;;;;;4.62;69.54;95587.47;5065255;28;20028;-77
2022/05/04 03:33:25;;;;;;;9.10;5.68;;;;;;;4.73;68.88;95599.78;5066297;28;20032;-76
2022/05/04 03:35:51;;;;;;;10.38;5.60;;;;;;;4.76;69.35;95592.38;5066358;28;20028;-76
2022/05/04 03:38:17;;;;;;;13.77;6.05;;;;;;;4.85;69.39;95597.88;5047851;28;21102;-73
2022/05/04 03:40:42;;;;;;;10.15;5.63;;;;;;;4.87;68.94;95604.72;5065723;28;20032;-75
2022/05/04 03:43:08;;;;;;;9.27;5.95;;;;;;;4.86;68.36;95602.19;5065544;28;20028;-76
2022/05/04 03:45:33;;;;;;;8.13;5.82;;;;;;;4.88;68.00;95605.56;5047953;28;20031;-74
2022/05/04 03:47:58;;;;;;;11.32;6.22;;;;;;;4.91;67.87;95602.63;5065773;28;20024;-75
2022/05/04 03:50:24;;;;;;;12.55;6.18;;;;;;;4.93;68.47;95600.69;5065876;28;20429;-74
2022/05/04 03:52:49;;;;;;;10.70;6.03;;;;;;;4.96;68.75;95605.72;5065335;28;20522;-75
2022/05/04 03:55:15;;;;;;;11.95;6.10;;;;;;;4.92;68.81;95609.63;5065214;28;20047;-75
2022/05/04 03:57:40;;;;;;;10.80;6.07;;;;;;;4.95;69.75;95609.34;5065753;28;20032;-76
2022/05/04 04:00:09;;;;;;;13.27;7.40;;;;;;;4.97;69.60;95596.75;5065302;28;20021;-73
2022/05/04 04:02:35;;;;;;;16.75;8.02;;;;;;;4.93;69.28;95612.13;5065545;28;20028;-75
2022/05/04 04:05:01;;;;;;;9.70;6.22;;;;;;;4.98;69.53;95621.53;5065494;28;20021;-75
2022/05/04 04:07:26;;;;;;;10.15;6.25;;;;;;;5.06;69.20;95627.00;5047572;28;20029;-74
2022/05/04 04:09:51;;;;;;;9.85;6.03;;;;;;;5.07;68.29;95624.22;5030852;28;20085;-76
2022/05/04 04:12:17;;;;;;;10.43;5.30;;;;;;;5.07;67.86;95629.53;5047491;28;20024;-75
2022/05/04 04:14:43;;;;;;;11.32;6.70;;;;;;;5.10;68.86;95627.56;5030703;28;20024;-75
2022/05/04 04:17:08;;;;;;;8.00;4.63;;;;;;;5.19;67.97;95624.09;5030418;28;20506;-76
2022/05/04 04:19:33;;;;;;;8.07;4.70;;;;;;;5.24;67.98;95629.81;5047258;28;20487;-75
2022/05/04 04:21:59;;;;;;;8.95;4.75;;;;;;;5.22;67.89;95626.47;5047105;28;20021;-77
2022/05/04 04:24:24;;;;;;;9.43;4.78;;;;;;;5.18;68.32;95635.69;5030392;28;20036;-75
2022/05/04 04:26:50;;;;;;;13.07;5.25;;;;;;;5.43;67.57;95633.47;5047070;28;20025;-76
2022/05/04 04:29:15;;;;;;;8.57;5.43;;;;;;;5.51;67.13;95633.63;5030693;28;20036;-73
2022/05/04 04:31:41;;;;;;;10.07;5.40;;;;;;;5.54;67.52;95638.66;5065154;28;20025;-75
2022/05/04 04:34:07;;;;;;;11.55;6.13;;;;;;;5.78;67.04;95636.53;5065292;28;20491;-76
2022/05/04 04:36:33;;;;;;;14.55;5.97;;;;;;;5.87;66.50;95635.66;5030275;28;20024;-75
2022/05/04 04:38:58;;;;;;;15.30;6.25;;;;;;;5.76;66.79;95635.81;5064757;28;20032;-73
2022/05/04 04:41:23;;;;;;;9.05;5.88;;;;;;;5.81;66.35;95631.75;5046387;28;20510;-74
2022/05/04 04:43:49;;;;;;;12.77;6.90;;;;;;;5.80;66.99;95630.06;5064763;28;20035;-76
2022/05/04 04:46:14;;;;;;;18.98;6.70;;;;;;;5.87;67.86;95622.34;5065056;28;20024;-74
2022/05/04 04:48:40;;;;;;;10.73;6.38;;;;;;;6.00;66.78;95631.84;5029731;28;20044;-76
2022/05/04 04:51:05;;;;;;;10.65;7.03;;;;;;;5.91;67.55;95639.75;5047135;28;20043;-73
2022/05/04 04:53:31;;;;;;;12.77;7.00;;;;;;;5.91;67.78;95626.44;5043269;28;20067;-74
2022/05/04 04:55:57;;;;;;;11.48;6.40;;;;;;;5.75;68.03;95635.00;5064630;28;20047;-74
2022/05/04 04:58:22;;;;;;;10.55;6.68;;;;;;;5.80;67.85;95635.38;5046503;28;20017;-73
2022/05/04 05:00:48;;;;;;;8.60;6.50;;;;;;;5.85;68.70;95642.13;5064512;28;20021;-76
2022/05/04 05:03:13;;;;;;;11.82;6.55;;;;;;;5.85;68.15;95642.13;5029889;28;20029;-74
2022/05/04 05:05:42;;;;;;;11.75;6.07;;;;;;;5.92;66.80;95654.72;5064240;28;20467;-75
2022/05/04 05:08:08;;;;;;;8.60;6.40;;;;;;;5.93;67.68;95645.75;5046808;28;20032;-74
2022/05/04 05:10:34;;;;;;;10.02;6.43;;;;;;;6.03;66.61;95645.72;5046403;28;20024;-74
2022/05/04 05:12:59;;;;;;;12.25;6.32;;;;;;;6.18;67.32;95642.63;5046856;28;20414;-75
2022/05/04 05:16:25;;;;;;;12.95;6.70;;;;;;;6.52;65.65;95647.44;5046520;28;20494;-74
2022/05/04 05:18:20;;;;;;;11.63;6.13;;;;;;;6.67;65.65;95646.97;5051021;28;20033;-75
2022/05/04 05:20:45;;;;;;;7.80;5.88;;;;;;;7.06;64.65;95643.25;5046543;28;20044;-74
2022/05/04 05:23:11;;;;;;;12.43;6.50;;;;;;;7.44;63.41;95645.81;5046352;28;20059;-74
2022/05/04 05:25:37;;;;;;;10.55;5.65;;;;;;;7.63;62.71;95641.28;5064600;28;20024;-75
2022/05/04 05:28:02;;;;;;;11.52;6.38;;;;;;;7.87;62.04;95645.16;5064379;28;20483;-74
2022/05/04 05:30:28;;;;;;;14.75;6.55;;;;;;;8.12;60.68;95643.53;5064721;28;20141;-74
2022/05/04 05:32:53;;;;;;;13.10;6.70;;;;;;;8.41;60.12;95639.66;5064407;28;20032;-75
2022/05/04 05:35:18;;;;;;;15.65;7.57;;;;;;;8.69;59.83;95644.03;5046288;28;20020;-73
2022/05/04 05:37:44;;;;;;;11.15;6.32;;;;;;;8.95;60.07;95640.47;5030638;28;20039;-74
2022/05/04 05:40:10;;;;;;;10.85;6.03;;;;;;;9.21;59.01;95649.41;5047681;28;20021;-75
2022/05/04 05:42:35;;;;;;;11.13;6.50;;;;;;;9.37;59.15;95638.75;5046008;28;20029;-75
2022/05/04 05:45:01;;;;;;;16.83;6.50;;;;;;;9.52;58.97;95635.41;5029584;28;20024;-74
2022/05/04 05:47:27;;;;;;;14.00;6.97;;;;;;;9.75;58.27;95640.13;5029772;28;20025;-74
2022/05/04 05:49:53;;;;;;;11.13;6.88;;;;;;;9.91;57.67;95635.78;5046282;28;20071;-75
2022/05/04 05:52:19;;;;;;;23.02;8.02;;;;;;;9.78;57.56;95634.44;5046573;28;20017;-74
2022/05/04 05:54:44;;;;;;;13.07;9.25;;;;;;;9.49;57.88;95631.25;5049194;28;20048;-75
2022/05/04 05:57:10;;;;;;;15.38;9.25;;;;;;;9.60;58.90;95637.25;5049911;28;20024;-75
2022/05/04 05:59:35;;;;;;;12.38;8.15;;;;;;;9.84;58.73;95640.97;5068105;28;20884;-75
2022/05/04 06:02:00;;;;;;;16.15;8.35;;;;;;;10.09;57.88;95636.41;5049297;28;20029;-75
2022/05/04 06:04:26;;;;;;;14.88;7.95;;;;;;;10.33;56.60;95639.25;5050203;28;20521;-76
2022/05/04 06:06:52;;;;;;;11.80;6.50;;;;;;;10.50;55.93;95640.94;5049754;28;20418;-78
2022/05/04 06:09:17;;;;;;;11.30;6.70;;;;;;;10.59;56.67;95640.91;5049925;28;20043;-75
2022/05/04 06:11:43;;;;;;;11.23;7.25;;;;;;;10.68;55.84;95645.22;5049691;28;20025;-76
2022/05/04 06:14:08;;;;;;;10.23;6.88;;;;;;;10.66;56.16;95641.03;5067927;28;20395;-76
2022/05/04 06:16:34;;;;;;;12.52;7.00;;;;;;;10.98;56.01;95639.25;5067480;28;20557;-75
2022/05/04 06:18:59;;;;;;;9.65;6.75;;;;;;;11.10;56.58;95637.03;5049652;28;20029;-77
2022/05/04 06:21:25;;;;;;;11.45;6.30;;;;;;;11.29;56.10;95634.91;5033054;28;20165;-76
2022/05/04 06:23:50;;;;;;;13.38;7.13;;;;;;;11.38;55.45;95637.34;5067249;28;20027;-77
2022/05/04 06:26:20;;;;;;;10.48;7.47;;;;;;;11.55;55.89;95634.59;5049684;28;20024;-75
2022/05/04 06:28:46;;;;;;;12.77;7.53;;;;;;;11.44;56.29;95638.53;5049033;28;20105;-75
2022/05/04 06:34:07;;;;;;;11.65;7.05;;;;;;;11.80;55.44;95630.88;5067013;28;20051;-74
2022/05/04 06:36:34;;;;;;;10.10;6.82;;;;;;;12.07;54.71;95634.03;5050858;28;20108;-75
2022/05/04 06:38:59;;;;;;;10.23;7.03;;;;;;;12.24;54.08;95630.19;5067204;28;20020;-76
2022/05/04 06:41:24;;;;;;;17.95;7.60;;;;;;;12.15;53.52;95630.44;5067263;28;20059;-75
2022/05/04 06:43:50;;;;;;;13.10;7.22;;;;;;;12.21;53.69;95622.50;5049035;28;20024;-76
2022/05/04 06:46:15;;;;;;;11.30;6.80;;;;;;;12.42;52.94;95623.63;5067160;28;20491;-75
2022/05/04 06:48:41;;;;;;;10.98;6.40;;;;;;;12.58;53.20;95621.78;5032358;28;20415;-75
2022/05/04 06:51:07;;;;;;;12.00;6.63;;;;;;;12.58;53.05;95628.00;5066825;28;20585;-76
2022/05/04 06:53:33;;;;;;;10.00;6.38;;;;;;;12.89;52.19;95623.47;5066740;28;20050;-75
2022/05/04 06:55:59;;;;;;;7.63;5.72;;;;;;;13.00;51.10;95637.44;5048971;28;20059;-77
2022/05/04 06:58:24;;;;;;;10.57;6.15;;;;;;;13.07;51.53;95631.13;5066713;28;20254;-78
2022/05/04 07:00:50;;;;;;;10.75;6.65;;;;;;;13.25;50.96;95635.28;5032579;28;20479;-74
2022/05/04 07:03:15;;;;;;;9.10;6.90;;;;;;;13.07;51.36;95624.94;5048648;28;20028;-73
2022/05/04 07:05:41;;;;;;;12.40;6.90;;;;;;;13.10;51.51;95624.56;5047895;28;20021;-76
2022/05/04 07:08:06;;;;;;;9.35;6.38;;;;;;;13.13;51.27;95626.88;5066327;28;20032;-74
2022/05/04 07:10:32;;;;;;;10.27;6.32;;;;;;;13.37;51.41;95629.41;5066639;28;20028;-73
2022/05/04 07:12:57;;;;;;;10.40;6.70;;;;;;;13.47;50.56;95625.41;5048224;28;20411;-74
2022/05/04 07:15:23;;;;;;;12.77;6.78;;;;;;;13.64;50.69;95618.97;5065993;28;20024;-74
2022/05/04 07:17:48;;;;;;;8.73;6.40;;;;;;;13.63;51.05;95623.50;5048650;28;20029;-74
2022/05/04 07:20:14;;;;;;;10.70;6.60;;;;;;;13.27;51.47;95630.53;5066181;28;20025;-74
2022/05/04 07:22:39;;;;;;;12.02;7.00;;;;;;;13.39;52.23;95621.97;5031559;28;20028;-74
2022/05/04 07:25:05;;;;;;;10.88;6.85;;;;;;;13.55;51.86;95610.16;5031258;28;20029;-74
2022/05/04 07:27:30;;;;;;;11.93;6.80;;;;;;;13.23;51.95;95618.50;5048125;28;20441;-73
2022/05/04 07:29:56;;;;;;;12.02;7.10;;;;;;;13.03;52.68;95613.69;5065712;28;20037;-74
2022/05/04 07:32:21;;;;;;;9.55;6.45;;;;;;;13.34;51.87;95615.31;5047861;28;20042;-74
2022/05/04 07:34:47;;;;;;;10.27;6.75;;;;;;;13.59;51.05;95606.03;5031380;28;20024;-74
2022/05/04 07:37:12;;;;;;;9.43;6.68;;;;;;;13.88;51.45;95606.94;5047728;28;20020;-73
2022/05/04 07:42:24;;;;;;;8.10;5.90;;;;;;;14.29;49.01;95609.97;5050626;28;20059;-74
2022/05/04 07:44:59;;;;;;;8.52;5.97;;;;;;;14.37;48.57;95600.88;5065629;28;20020;-74
2022/05/04 07:47:29;;;;;;;10.55;5.82;;;;;;;14.52;48.69;95596.25;5048728;28;20032;-74
2022/05/04 07:49:55;;;;;;;7.10;4.95;;;;;;;14.73;47.90;95599.03;5047577;28;20023;-75
2022/05/04 07:52:20;;;;;;;9.60;5.15;;;;;;;14.95;47.37;95605.22;5014375;28;20036;-74
2022/05/04 07:54:46;;;;;;;7.18;4.20;;;;;;;15.08;46.93;95601.75;5065262;28;20535;-74
2022/05/04 07:57:11;;;;;;;5.65;4.38;;;;;;;15.16;46.44;95595.31;5030910;28;20437;-74
2022/05/04 07:59:37;;;;;;;7.80;4.57;;;;;;;15.13;46.89;95596.56;5065499;28;20082;-74
2022/05/04 08:04:47;;;;;;;7.20;4.65;;;;;;;15.45;46.49;95594.19;5049994;28;20109;-74
2022/05/04 08:07:13;;;;;;;4.18;3.35;;;;;;;15.53;45.95;95600.44;5064992;28;20453;-75
2022/05/04 08:09:39;;;;;;;7.40;3.25;;;;;;;15.69;45.53;95591.94;5065432;28;20521;-75
2022/05/04 08:12:06;;;;;;;4.68;2.72;;;;;;;15.76;43.91;95591.13;5047239;28;20029;-75
2022/05/04 08:14:32;;;;;;;5.10;2.42;;;;;;;15.86;43.47;95585.31;5065262;28;20021;-75
2022/05/04 08:16:58;;;;;;;4.95;2.60;;;;;;;15.94;44.13;95594.03;5047252;28;20404;-76
2022/05/04 08:19:23;;;;;;;6.70;2.60;;;;;;;16.01;44.55;95585.16;5065067;28;20028;-75
2022/05/04 08:21:48;;;;;;;7.72;2.58;;;;;;;16.20;44.49;95583.47;5065066;28;20032;-75
2022/05/04 08:24:14;;;;;;;6.07;2.50;;;;;;;16.29;45.00;95584.09;5064988;28;20031;-76
2022/05/04 08:26:39;;;;;;;5.22;2.80;;;;;;;16.38;43.84;95576.59;5046835;28;20028;-75
2022/05/04 08:29:05;;;;;;;3.60;2.47;;;;;;;16.53;43.86;95584.47;5064634;28;20501;-75
2022/05/04 08:31:31;;;;;;;5.05;2.25;;;;;;;16.64;41.54;95572.16;5030680;28;20021;-77
2022/05/04 08:33:57;;;;;;;5.70;2.42;;;;;;;16.68;40.30;95579.63;5046999;28;20498;-76
2022/05/04 08:36:22;;;;;;;6.85;2.38;;;;;;;16.70;40.32;95575.91;5065026;28;20040;-76
2022/05/04 08:38:48;;;;;;;3.92;2.15;;;;;;;16.68;40.10;95582.34;5047101;28;20029;-74
2022/05/04 08:41:13;;;;;;;2.95;1.92;;;;;;;16.70;39.88;95579.44;5064633;28;20474;-74
2022/05/04 08:43:42;;;;;;;3.20;1.85;;;;;;;16.67;39.88;95580.69;5046483;28;20480;-75
2022/05/04 08:46:08;;;;;;;4.10;2.40;;;;;;;16.75;41.13;95586.94;5047227;28;20055;-74
2022/05/04 08:48:33;;;;;;;5.63;2.20;;;;;;;16.92;41.60;95577.31;5030158;28;20086;-75
2022/05/04 08:51:05;;;;;;;4.53;2.53;;;;;;;16.97;42.07;95578.53;5064870;28;20028;-74
2022/05/04 08:53:31;;;;;;;5.22;2.30;;;;;;;17.10;42.19;95567.69;5031861;28;20052;-76
2022/05/04 08:55:56;;;;;;;9.63;2.38;;;;;;;17.27;40.66;95573.44;5030210;28;20524;-76
2022/05/04 08:58:22;;;;;;;4.05;2.10;;;;;;;17.33;40.45;95573.63;5064608;28;20545;-74
2022/05/04 09:00:47;;;;;;;4.40;2.10;;;;;;;17.39;40.29;95573.59;5029894;28;20721;-76
2022/05/04 09:03:13;;;;;;;5.80;2.17;;;;;;;17.48;40.81;95576.84;5046747;28;20487;-75
2022/05/04 09:05:40;;;;;;;2.80;1.90;;;;;;;17.58;40.16;95573.69;5013266;28;20040;-73
2022/05/04 09:08:06;;;;;;;2.78;1.95;;;;;;;17.65;40.67;95574.44;5064551;28;20054;-75
2022/05/04 09:10:36;;;;;;;4.68;2.20;;;;;;;17.72;39.71;95568.16;5046716;28;20141;-78
2022/05/04 09:13:03;;;;;;;3.97;1.83;;;;;;;17.83;39.73;95564.72;5064636;28;20561;-75
2022/05/04 09:15:35;;;;;;;3.38;1.73;;;;;;;17.84;38.24;95571.00;5030706;28;20025;-76
2022/05/04 09:18:01;;;;;;;3.00;1.90;;;;;;;17.92;37.55;95562.59;5046984;28;20033;-78
2022/05/04 09:20:49;;;;;;;5.40;1.80;;;;;;;17.92;37.69;95563.44;5064591;28;20035;-75
2022/05/04 09:23:25;;;;;;;3.70;1.90;;;;;;;18.01;36.34;95563.13;5048405;28;20024;-76
2022/05/04 09:25:52;;;;;;;2.65;1.70;;;;;;;17.99;37.27;95549.78;5047875;28;20414;-75
2022/05/04 09:28:18;;;;;;;4.60;2.20;;;;;;;18.06;36.60;95562.47;5048471;28;20058;-75
2022/05/04 09:30:44;;;;;;;3.20;1.80;;;;;;;18.08;36.37;95553.06;5068469;28;20407;-75
2022/05/04 09:33:13;;;;;;;2.38;1.52;;;;;;;18.07;36.45;95548.69;5068551;28;20023;-75
2022/05/04 09:35:41;;;;;;;3.40;1.90;;;;;;;18.10;36.56;95547.44;5050617;28;20543;-76
2022/05/04 09:46:39;;;;;;;6.28;2.90;;;;;;;18.15;36.38;95540.28;5036767;28;20136;-76
2022/05/04 09:49:31;;;;;;;3.75;2.30;;;;;;;18.26;36.90;95527.06;5050498;28;20028;-78
2022/05/04 09:51:57;;;;;;;7.18;2.85;;;;;;;18.43;37.14;95526.50;5067952;28;20116;-78
2022/05/04 09:54:28;;;;;;;3.55;2.22;;;;;;;18.43;36.48;95524.59;5050077;28;20037;-75
2022/05/04 09:56:58;;;;;;;4.00;1.98;;;;;;;18.49;36.70;95520.97;5067508;28;20024;-75
2022/05/04 09:59:29;;;;;;;2.20;1.73;;;;;;;18.52;36.32;95512.38;5067859;28;20506;-74
2022/05/04 10:01:54;;;;;;;5.00;2.20;;;;;;;18.51;35.89;95515.31;5050086;28;20036;-76
2022/05/04 10:04:20;;;;;;;5.68;2.45;;;;;;;18.56;37.03;95517.34;5049833;28;20486;-74
2022/05/04 10:06:49;;;;;;;3.45;2.33;;;;;;;18.65;35.70;95514.09;5032783;28;20162;-76
2022/05/04 10:09:15;;;;;;;3.88;2.08;;;;;;;18.62;36.22;95511.03;5015749;28;20025;-76
2022/05/04 10:11:41;;;;;;;5.63;2.20;;;;;;;18.77;35.51;95503.31;5048655;28;20021;-75
2022/05/04 10:14:10;;;;;;;2.33;1.63;;;;;;;18.87;36.06;95497.38;5032181;28;20052;-74
2022/05/04 10:16:44;;;;;;;6.38;3.00;;;;;;;18.96;35.19;95502.50;5050014;28;20099;-76
2022/05/04 10:19:15;;;;;;;5.28;2.30;;;;;;;18.97;34.81;95498.69;5032879;28;20028;-75
2022/05/04 10:21:41;;;;;;;3.85;2.25;;;;;;;18.88;34.04;95496.28;5049955;28;20059;-75
2022/05/04 10:24:08;;;;;;;3.13;2.00;;;;;;;18.80;35.57;95495.78;5033236;28;20101;-77
2022/05/04 10:26:34;;;;;;;3.55;1.98;;;;;;;18.80;35.18;95491.16;5033363;28;20050;-77
2022/05/04 10:31:56;;;;;;;3.28;1.80;;;;;;;18.63;35.28;95494.50;5052037;28;20105;-74
2022/05/04 10:34:22;;;;;;;6.75;2.20;;;;;;;18.65;36.65;95491.56;5033605;28;20495;-76
2022/05/04 10:36:48;;;;;;;3.75;2.00;;;;;;;18.68;36.17;95484.84;5049541;28;20104;-76
2022/05/04 10:39:24;;;;;;;3.42;2.20;;;;;;;18.61;35.59;95487.63;5049072;28;20044;-77
2022/05/04 10:41:50;;;;;;;3.35;2.30;;;;;;;18.63;35.35;95491.81;5033567;28;20565;-78
2022/05/04 10:44:15;;;;;;;6.90;3.22;;;;;;;18.61;35.06;95484.91;5032386;28;20479;-77
2022/05/04 10:46:44;;;;;;;3.45;2.35;;;;;;;18.57;35.51;95475.56;5032514;28;20033;-75
2022/05/04 10:49:13;;;;;;;6.32;2.40;;;;;;;18.72;35.55;95480.59;5032429;28;20082;-75
2022/05/04 10:51:39;;;;;;;4.03;2.33;;;;;;;18.66;35.51;95474.22;5033586;28;20021;-77
2022/05/04 10:54:13;;;;;;;3.08;1.98;;;;;;;18.72;36.49;95465.13;5032099;28;20036;-76
2022/05/04 10:56:44;;;;;;;5.00;2.42;;;;;;;18.76;35.14;95463.66;5066729;28;20044;-76
2022/05/04 10:59:10;;;;;;;5.38;2.30;;;;;;;18.78;34.86;95466.13;5066789;28;20052;-76
2022/05/04 11:01:37;;;;;;;4.78;1.85;;;;;;;18.79;35.64;95459.63;5032441;28;20035;-76
2022/05/04 11:04:09;;;;;;;5.07;2.38;;;;;;;18.77;35.62;95464.44;5048664;28;20116;-75
2022/05/04 11:06:41;;;;;;;7.30;2.42;;;;;;;18.72;34.96;95451.56;5067005;28;20033;-76
2022/05/04 11:09:08;;;;;;;3.65;2.42;;;;;;;18.70;34.31;95450.13;5066281;28;20533;-77
2022/05/04 11:11:34;;;;;;;2.40;1.98;;;;;;;18.77;35.05;95453.59;5048745;28;20624;-75
2022/05/04 11:13:59;;;;;;;2.63;1.80;;;;;;;18.89;35.21;95456.38;5031895;28;20028;-76
2022/05/04 11:16:26;;;;;;;4.25;2.00;;;;;;;19.09;35.15;95452.53;5066456;28;20055;-76
2022/05/04 11:18:52;;;;;;;2.95;2.20;;;;;;;19.33;34.55;95458.91;5032147;28;20032;-76
2022/05/04 11:21:18;;;;;;;3.97;2.05;;;;;;;19.55;34.19;95457.56;5031547;28;20025;-76
2022/05/04 11:24:04;;;;;;;2.95;1.80;;;;;;;19.77;34.01;95455.09;5048280;28;20021;-76
2022/05/04 11:26:44;;;;;;;6.95;2.15;;;;;;;19.81;32.01;95450.03;5048090;28;20415;-74
2022/05/04 11:29:14;;;;;;;4.68;2.15;;;;;;;19.83;32.23;95447.91;5031729;28;20446;-76
2022/05/04 11:31:47;;;;;;;6.28;2.63;;;;;;;19.92;32.95;95451.09;5031486;28;20025;-75
2022/05/04 11:34:19;;;;;;;4.38;1.83;;;;;;;20.11;32.24;95455.38;5031127;28;20025;-74
2022/05/04 11:36:45;;;;;;;6.30;2.03;;;;;;;20.07;32.24;95451.47;5047908;28;20032;-75
2022/05/04 11:39:16;;;;;;;3.83;1.80;;;;;;;20.17;31.97;95444.63;5047623;28;20281;-76
2022/05/04 11:41:44;;;;;;;5.38;1.90;;;;;;;20.31;32.34;95453.38;5047993;28;20408;-77
2022/05/04 11:44:10;;;;;;;3.15;1.90;;;;;;;20.23;32.38;95435.50;5047883;28;20024;-75
2022/05/04 11:46:35;;;;;;;4.55;1.80;;;;;;;20.23;32.67;95447.19;5047816;28;20392;-77
2022/05/04 11:49:01;;;;;;;3.75;2.22;;;;;;;20.19;32.69;95440.59;5047915;28;20687;-75
2022/05/04 11:51:26;;;;;;;14.80;2.58;;;;;;;20.16;32.71;95432.06;5064861;28;20025;-77
2022/05/04 11:53:52;;;;;;;6.53;2.13;;;;;;;20.03;34.00;95423.06;5047492;28;20595;-75
2022/05/04 11:56:17;;;;;;;9.48;2.35;;;;;;;19.92;34.04;95423.88;5043504;28;20048;-74